sensor_id;sensor_type;location;lat;lon;timestamp;pressure;altitude;pressure_sealevel;temperature;humidity
58223;BME280;44020;50.890;15.796;2023-03-21T00:00:44;97628.51;;;8.64;89.61
58223;BME280;44020;50.890;15.796;2023-03-21T00:03:47;97628.24;;;8.57;89.35
58223;BME280;44020;50.890;15.796;2023-03-21T00:06:27;97626.73;;;8.47;89.02
58223;BME280;44020;50.890;15.796;2023-03-21T00:12:18;97630.63;;;8.30;89.15
58223;BME280;44020;50.890;15.796;2023-03-21T00:18:22;97628.35;;;8.27;89.74
58223;BME280;44020;50.890;15.796;2023-03-21T00:21:23;97624.64;;;8.29;89.78
58223;BME280;44020;50.890;15.796;2023-03-21T00:30:25;97611.23;;;8.20;89.39
58223;BME280;44020;50.890;15.796;2023-03-21T00:39:09;97603.08;;;8.23;89.82
58223;BME280;44020;50.890;15.796;2023-03-21T00:42:18;97601.87;;;8.26;89.87
58223;BME280;44020;50.890;15.796;2023-03-21T00:44:48;97600.95;;;8.26;90.03
58223;BME280;44020;50.890;15.796;2023-03-21T00:47:36;97601.97;;;8.27;90.01
58223;BME280;44020;50.890;15.796;2023-03-21T00:50:24;97600.88;;;8.27;90.06
58223;BME280;44020;50.890;15.796;2023-03-21T00:56:21;97605.52;;;8.21;89.58
58223;BME280;44020;50.890;15.796;2023-03-21T01:02:29;97636.45;;;8.02;89.72
58223;BME280;44020;50.890;15.796;2023-03-21T01:04:59;97638.98;;;7.97;90.23
58223;BME280;44020;50.890;15.796;2023-03-21T01:10:50;97633.27;;;7.99;90.65
58223;BME280;44020;50.890;15.796;2023-03-21T01:13:50;97634.80;;;7.99;90.99
58223;BME280;44020;50.890;15.796;2023-03-21T01:19:40;97626.14;;;8.02;91.77
58223;BME280;44020;50.890;15.796;2023-03-21T01:22:29;97621.79;;;8.04;91.52
58223;BME280;44020;50.890;15.796;2023-03-21T01:25:17;97625.76;;;8.05;92.00
58223;BME280;44020;50.890;15.796;2023-03-21T01:33:11;97619.92;;;8.05;92.55
58223;BME280;44020;50.890;15.796;2023-03-21T01:35:45;97617.76;;;8.06;92.65
58223;BME280;44020;50.890;15.796;2023-03-21T01:48:01;97618.23;;;8.12;93.12
58223;BME280;44020;50.890;15.796;2023-03-21T01:50:57;97613.63;;;8.13;93.18
58223;BME280;44020;50.890;15.796;2023-03-21T01:53:48;97612.27;;;8.15;93.24
58223;BME280;44020;50.890;15.796;2023-03-21T01:56:43;97610.80;;;8.16;93.22
58223;BME280;44020;50.890;15.796;2023-03-21T01:59:40;97610.02;;;8.17;93.29
58223;BME280;44020;50.890;15.796;2023-03-21T02:02:16;97607.61;;;8.19;93.35
58223;BME280;44020;50.890;15.796;2023-03-21T02:05:24;97606.02;;;8.19;93.50
58223;BME280;44020;50.890;15.796;2023-03-21T02:08:17;97603.85;;;8.19;93.54
58223;BME280;44020;50.890;15.796;2023-03-21T02:11:09;97600.18;;;8.18;93.60
58223;BME280;44020;50.890;15.796;2023-03-21T02:13:37;97601.23;;;8.19;93.64
58223;BME280;44020;50.890;15.796;2023-03-21T02:22:22;97595.23;;;8.24;93.66
58223;BME280;44020;50.890;15.796;2023-03-21T02:28:36;97593.16;;;8.26;94.07
58223;BME280;44020;50.890;15.796;2023-03-21T02:43:46;97591.89;;;8.18;93.80
58223;BME280;44020;50.890;15.796;2023-03-21T02:46:37;97590.85;;;8.15;93.61
58223;BME280;44020;50.890;15.796;2023-03-21T02:49:29;97592.10;;;8.14;93.88
58223;BME280;44020;50.890;15.796;2023-03-21T02:51:58;97597.83;;;8.13;93.82
58223;BME280;44020;50.890;15.796;2023-03-21T02:54:27;97598.95;;;8.12;93.68
58223;BME280;44020;50.890;15.796;2023-03-21T02:59:54;97598.95;;;8.12;93.99
58223;BME280;44020;50.890;15.796;2023-03-21T03:05:54;97604.30;;;8.12;93.83
58223;BME280;44020;50.890;15.796;2023-03-21T03:23:47;97602.41;;;8.08;94.08
58223;BME280;44020;50.890;15.796;2023-03-21T03:29:40;97603.61;;;8.06;94.16
58223;BME280;44020;50.890;15.796;2023-03-21T03:35:13;97603.06;;;8.01;94.37
58223;BME280;44020;50.890;15.796;2023-03-21T03:38:03;97604.62;;;7.98;94.11
58223;BME280;44020;50.890;15.796;2023-03-21T03:41:16;97604.07;;;7.98;94.25
58223;BME280;44020;50.890;15.796;2023-03-21T03:44:20;97608.15;;;7.98;94.47
58223;BME280;44020;50.890;15.796;2023-03-21T03:57:25;97615.69;;;7.90;94.59
58223;BME280;44020;50.890;15.796;2023-03-21T04:06:17;97620.89;;;7.86;94.40
58223;BME280;44020;50.890;15.796;2023-03-21T04:08:59;97626.16;;;7.84;94.18
58223;BME280;44020;50.890;15.796;2023-03-21T04:11:29;97626.48;;;7.79;94.00
58223;BME280;44020;50.890;15.796;2023-03-21T04:14:18;97626.39;;;7.78;94.22
58223;BME280;44020;50.890;15.796;2023-03-21T04:16:59;97628.55;;;7.77;94.02
58223;BME280;44020;50.890;15.796;2023-03-21T04:19:41;97632.14;;;7.74;94.01
58223;BME280;44020;50.890;15.796;2023-03-21T04:22:28;97632.20;;;7.72;93.88
58223;BME280;44020;50.890;15.796;2023-03-21T04:25:01;97626.16;;;7.69;93.72
58223;BME280;44020;50.890;15.796;2023-03-21T04:27:43;97625.69;;;7.65;93.89
58223;BME280;44020;50.890;15.796;2023-03-21T04:30:42;97624.05;;;7.64;93.65
58223;BME280;44020;50.890;15.796;2023-03-21T04:36:57;97627.81;;;7.62;93.82
58223;BME280;44020;50.890;15.796;2023-03-21T04:40:07;97628.02;;;7.62;93.47
58223;BME280;44020;50.890;15.796;2023-03-21T04:49:25;97623.10;;;7.65;93.27
58223;BME280;44020;50.890;15.796;2023-03-21T04:55:14;97626.25;;;7.65;93.17
58223;BME280;44020;50.890;15.796;2023-03-21T05:08:11;97620.65;;;7.61;92.63
58223;BME280;44020;50.890;15.796;2023-03-21T05:10:41;97618.05;;;7.57;92.61
58223;BME280;44020;50.890;15.796;2023-03-21T05:22:37;97620.46;;;7.55;92.92
58223;BME280;44020;50.890;15.796;2023-03-21T05:25:30;97620.47;;;7.53;93.01
58223;BME280;44020;50.890;15.796;2023-03-21T05:28:38;97620.38;;;7.54;93.05
58223;BME280;44020;50.890;15.796;2023-03-21T05:31:05;97623.08;;;7.56;93.01
58223;BME280;44020;50.890;15.796;2023-03-21T05:33:43;97623.67;;;7.55;93.01
58223;BME280;44020;50.890;15.796;2023-03-21T05:36:29;97626.50;;;7.52;92.88
58223;BME280;44020;50.890;15.796;2023-03-21T05:39:20;97630.31;;;7.50;92.91
58223;BME280;44020;50.890;15.796;2023-03-21T05:42:10;97634.77;;;7.47;92.82
58223;BME280;44020;50.890;15.796;2023-03-21T05:44:55;97633.56;;;7.46;93.09
58223;BME280;44020;50.890;15.796;2023-03-21T05:56:34;97632.80;;;7.44;93.35
58223;BME280;44020;50.890;15.796;2023-03-21T05:59:02;97635.45;;;7.44;93.29
58223;BME280;44020;50.890;15.796;2023-03-21T06:01:49;97639.83;;;7.45;93.23
58223;BME280;44020;50.890;15.796;2023-03-21T06:04:17;97644.25;;;7.42;93.18
58223;BME280;44020;50.890;15.796;2023-03-21T06:06:47;97648.13;;;7.42;93.13
58223;BME280;44020;50.890;15.796;2023-03-21T06:09:19;97647.61;;;7.42;93.43
58223;BME280;44020;50.890;15.796;2023-03-21T06:11:50;97651.51;;;7.41;93.24
58223;BME280;44020;50.890;15.796;2023-03-21T06:14:19;97650.23;;;7.42;93.41
58223;BME280;44020;50.890;15.796;2023-03-21T06:16:47;97651.67;;;7.42;93.13
58223;BME280;44020;50.890;15.796;2023-03-21T06:19:19;97648.26;;;7.43;93.25
58223;BME280;44020;50.890;15.796;2023-03-21T06:21:57;97648.30;;;7.45;93.35
58223;BME280;44020;50.890;15.796;2023-03-21T06:24:32;97656.40;;;7.45;93.42
58223;BME280;44020;50.890;15.796;2023-03-21T06:27:13;97652.31;;;7.46;93.32
58223;BME280;44020;50.890;15.796;2023-03-21T06:29:52;97656.66;;;7.47;93.25
58223;BME280;44020;50.890;15.796;2023-03-21T06:32:20;97655.39;;;7.47;93.16
58223;BME280;44020;50.890;15.796;2023-03-21T06:34:48;97657.87;;;7.47;93.21
58223;BME280;44020;50.890;15.796;2023-03-21T06:37:19;97659.30;;;7.47;93.22
58223;BME280;44020;50.890;15.796;2023-03-21T06:39:49;97661.60;;;7.47;93.32
58223;BME280;44020;50.890;15.796;2023-03-21T06:42:18;97661.39;;;7.48;93.24
58223;BME280;44020;50.890;15.796;2023-03-21T06:44:49;97661.42;;;7.47;93.02
58223;BME280;44020;50.890;15.796;2023-03-21T06:47:18;97658.72;;;7.48;93.32
58223;BME280;44020;50.890;15.796;2023-03-21T06:49:46;97660.16;;;7.50;93.40
58223;BME280;44020;50.890;15.796;2023-03-21T06:52:22;97665.52;;;7.53;93.25
58223;BME280;44020;50.890;15.796;2023-03-21T06:54:56;97659.70;;;7.56;93.34
58223;BME280;44020;50.890;15.796;2023-03-21T06:58:09;97661.83;;;7.59;93.39
58223;BME280;44020;50.890;15.796;2023-03-21T07:00:59;97661.35;;;7.61;93.04
58223;BME280;44020;50.890;15.796;2023-03-21T07:03:28;97663.83;;;7.61;93.08
58223;BME280;44020;50.890;15.796;2023-03-21T07:05:56;97668.95;;;7.61;93.08
58223;BME280;44020;50.890;15.796;2023-03-21T07:08:27;97673.84;;;7.62;92.97
58223;BME280;44020;50.890;15.796;2023-03-21T07:10:58;97673.62;;;7.62;92.97
58223;BME280;44020;50.890;15.796;2023-03-21T07:13:26;97669.65;;;7.64;93.11
58223;BME280;44020;50.890;15.796;2023-03-21T07:15:54;97672.45;;;7.67;93.23
58223;BME280;44020;50.890;15.796;2023-03-21T07:18:22;97672.38;;;7.68;93.21
58223;BME280;44020;50.890;15.796;2023-03-21T07:20:53;97672.02;;;7.72;93.31
58223;BME280;44020;50.890;15.796;2023-03-21T07:23:26;97669.42;;;7.74;92.97
58223;BME280;44020;50.890;15.796;2023-03-21T07:25:55;97667.66;;;7.74;92.79
58223;BME280;44020;50.890;15.796;2023-03-21T07:28:23;97672.45;;;7.74;92.71
58223;BME280;44020;50.890;15.796;2023-03-21T07:30:56;97674.65;;;7.72;92.44
58223;BME280;44020;50.890;15.796;2023-03-21T07:33:24;97678.68;;;7.73;92.59
58223;BME280;44020;50.890;15.796;2023-03-21T07:35:54;97676.45;;;7.75;92.49
58223;BME280;44020;50.890;15.796;2023-03-21T07:38:26;97675.91;;;7.78;92.60
58223;BME280;44020;50.890;15.796;2023-03-21T07:40:58;97680.03;;;7.80;92.37
58223;BME280;44020;50.890;15.796;2023-03-21T07:43:29;97683.92;;;7.80;92.09
58223;BME280;44020;50.890;15.796;2023-03-21T07:46:21;97685.83;;;7.80;92.31
58223;BME280;44020;50.890;15.796;2023-03-21T07:49:01;97683.23;;;7.82;92.19
58223;BME280;44020;50.890;15.796;2023-03-21T07:51:39;97681.93;;;7.83;92.23
58223;BME280;44020;50.890;15.796;2023-03-21T07:57:15;97681.36;;;7.87;92.06
58223;BME280;44020;50.890;15.796;2023-03-21T07:59:44;97678.91;;;7.89;92.28
58223;BME280;44020;50.890;15.796;2023-03-21T08:02:22;97680.05;;;7.94;92.50
58223;BME280;44020;50.890;15.796;2023-03-21T08:05:23;97677.21;;;7.97;92.51
58223;BME280;44020;50.890;15.796;2023-03-21T08:07:54;97677.67;;;8.01;92.59
58223;BME280;44020;50.890;15.796;2023-03-21T08:10:25;97685.05;;;8.05;92.43
58223;BME280;44020;50.890;15.796;2023-03-21T08:13:02;97684.23;;;8.07;92.44
58223;BME280;44020;50.890;15.796;2023-03-21T08:15:40;97685.19;;;8.09;92.14
58223;BME280;44020;50.890;15.796;2023-03-21T08:18:09;97686.87;;;8.10;92.31
58223;BME280;44020;50.890;15.796;2023-03-21T08:20:38;97691.63;;;8.13;92.48
58223;BME280;44020;50.890;15.796;2023-03-21T08:28:49;97691.53;;;8.09;92.23
58223;BME280;44020;50.890;15.796;2023-03-21T08:31:17;97691.89;;;8.12;92.46
58223;BME280;44020;50.890;15.796;2023-03-21T08:33:47;97692.02;;;8.16;92.21
58223;BME280;44020;50.890;15.796;2023-03-21T08:36:43;97694.31;;;8.19;92.63
58223;BME280;44020;50.890;15.796;2023-03-21T08:39:12;97690.10;;;8.24;92.46
58223;BME280;44020;50.890;15.796;2023-03-21T08:41:45;97694.89;;;8.27;92.35
58223;BME280;44020;50.890;15.796;2023-03-21T08:44:24;97690.85;;;8.29;92.37
58223;BME280;44020;50.890;15.796;2023-03-21T08:46:59;97692.22;;;8.33;92.36
58223;BME280;44020;50.890;15.796;2023-03-21T08:49:34;97691.36;;;8.38;92.33
58223;BME280;44020;50.890;15.796;2023-03-21T08:52:22;97691.95;;;8.44;92.40
58223;BME280;44020;50.890;15.796;2023-03-21T08:55:20;97688.70;;;8.47;92.19
58223;BME280;44020;50.890;15.796;2023-03-21T08:57:48;97689.14;;;8.51;92.24
58223;BME280;44020;50.890;15.796;2023-03-21T09:03:19;97694.03;;;8.59;92.09
58223;BME280;44020;50.890;15.796;2023-03-21T09:05:48;97698.20;;;8.63;92.02
58223;BME280;44020;50.890;15.796;2023-03-21T09:08:16;97697.82;;;8.66;91.86
58223;BME280;44020;50.890;15.796;2023-03-21T09:11:02;97697.37;;;8.67;91.48
58223;BME280;44020;50.890;15.796;2023-03-21T09:13:33;97700.96;;;8.69;91.37
58223;BME280;44020;50.890;15.796;2023-03-21T09:16:09;97705.45;;;8.71;91.22
58223;BME280;44020;50.890;15.796;2023-03-21T09:18:40;97707.02;;;8.72;90.97
58223;BME280;44020;50.890;15.796;2023-03-21T09:21:15;97709.21;;;8.73;90.83
58223;BME280;44020;50.890;15.796;2023-03-21T09:23:47;97710.16;;;8.75;90.57
58223;BME280;44020;50.890;15.796;2023-03-21T09:26:28;97708.02;;;8.78;90.42
58223;BME280;44020;50.890;15.796;2023-03-21T09:29:05;97707.22;;;8.80;90.11
58223;BME280;44020;50.890;15.796;2023-03-21T09:31:33;97701.91;;;8.82;89.96
58223;BME280;44020;50.890;15.796;2023-03-21T09:34:01;97704.63;;;8.87;89.72
58223;BME280;44020;50.890;15.796;2023-03-21T09:36:51;97702.67;;;8.95;89.52
58223;BME280;44020;50.890;15.796;2023-03-21T09:39:22;97704.41;;;9.02;89.22
58223;BME280;44020;50.890;15.796;2023-03-21T09:42:06;97706.83;;;9.06;88.77
58223;BME280;44020;50.890;15.796;2023-03-21T09:47:31;97707.75;;;9.10;88.24
58223;BME280;44020;50.890;15.796;2023-03-21T09:50:11;97704.66;;;9.06;87.72
58223;BME280;44020;50.890;15.796;2023-03-21T09:52:55;97701.62;;;9.04;87.38
58223;BME280;44020;50.890;15.796;2023-03-21T09:55:34;97704.88;;;9.06;87.30
58223;BME280;44020;50.890;15.796;2023-03-21T10:00:38;97706.86;;;9.05;86.67
58223;BME280;44020;50.890;15.796;2023-03-21T10:03:20;97702.23;;;9.05;86.64
58223;BME280;44020;50.890;15.796;2023-03-21T10:05:56;97700.84;;;9.08;86.35
58223;BME280;44020;50.890;15.796;2023-03-21T10:08:34;97698.63;;;9.09;86.20
58223;BME280;44020;50.890;15.796;2023-03-21T10:11:16;97699.70;;;9.14;86.29
58223;BME280;44020;50.890;15.796;2023-03-21T10:13:52;97696.19;;;9.17;85.88
58223;BME280;44020;50.890;15.796;2023-03-21T10:16:30;97690.58;;;9.18;85.98
58223;BME280;44020;50.890;15.796;2023-03-21T10:19:18;97692.15;;;9.21;85.78
58223;BME280;44020;50.890;15.796;2023-03-21T10:21:50;97685.77;;;9.25;85.63
58223;BME280;44020;50.890;15.796;2023-03-21T10:24:24;97689.60;;;9.28;85.54
58223;BME280;44020;50.890;15.796;2023-03-21T10:27:12;97686.95;;;9.30;85.32
58223;BME280;44020;50.890;15.796;2023-03-21T10:29:44;97687.96;;;9.34;85.03
58223;BME280;44020;50.890;15.796;2023-03-21T10:32:14;97685.01;;;9.35;84.81
58223;BME280;44020;50.890;15.796;2023-03-21T10:34:48;97683.25;;;9.38;84.71
58223;BME280;44020;50.890;15.796;2023-03-21T10:37:18;97685.45;;;9.43;84.69
58223;BME280;44020;50.890;15.796;2023-03-21T10:39:56;97686.10;;;9.44;84.27
58223;BME280;44020;50.890;15.796;2023-03-21T10:42:36;97686.02;;;9.42;84.20
58223;BME280;44020;50.890;15.796;2023-03-21T10:45:15;97688.98;;;9.40;84.09
58223;BME280;44020;50.890;15.796;2023-03-21T10:48:07;97691.63;;;9.41;83.85
58223;BME280;44020;50.890;15.796;2023-03-21T10:50:46;97688.91;;;9.42;83.87
58223;BME280;44020;50.890;15.796;2023-03-21T10:56:16;97686.18;;;9.48;83.84
58223;BME280;44020;50.890;15.796;2023-03-21T10:58:46;97686.19;;;9.48;83.39
58223;BME280;44020;50.890;15.796;2023-03-21T11:01:41;97685.04;;;9.46;83.12
58223;BME280;44020;50.890;15.796;2023-03-21T11:04:21;97687.73;;;9.46;83.22
58223;BME280;44020;50.890;15.796;2023-03-21T11:09:49;97675.77;;;9.55;82.86
58223;BME280;44020;50.890;15.796;2023-03-21T11:12:47;97674.29;;;9.61;82.35
58223;BME280;44020;50.890;15.796;2023-03-21T11:18:31;97670.36;;;9.69;82.15
58223;BME280;44020;50.890;15.796;2023-03-21T11:21:36;97666.88;;;9.69;82.03
58223;BME280;44020;50.890;15.796;2023-03-21T11:24:13;97667.19;;;9.69;82.43
58223;BME280;44020;50.890;15.796;2023-03-21T11:26:53;97666.79;;;9.72;82.07
58223;BME280;44020;50.890;15.796;2023-03-21T11:32:30;97662.74;;;9.80;82.51
58223;BME280;44020;50.890;15.796;2023-03-21T11:37:44;97658.30;;;9.83;82.03
58223;BME280;44020;50.890;15.796;2023-03-21T11:40:58;97654.27;;;9.87;82.09
58223;BME280;44020;50.890;15.796;2023-03-21T11:43:36;97646.36;;;9.96;82.21
58223;BME280;44020;50.890;15.796;2023-03-21T11:46:12;97643.67;;;10.07;82.36
58223;BME280;44020;50.890;15.796;2023-03-21T11:49:03;97640.39;;;10.21;82.33
58223;BME280;44020;50.890;15.796;2023-03-21T11:51:48;97638.77;;;10.26;81.81
58223;BME280;44020;50.890;15.796;2023-03-21T11:54:27;97633.61;;;10.32;81.40
58223;BME280;44020;50.890;15.796;2023-03-21T12:02:46;97630.04;;;10.52;81.02
58223;BME280;44020;50.890;15.796;2023-03-21T12:14:12;97621.44;;;10.81;80.22
58223;BME280;44020;50.890;15.796;2023-03-21T12:25:44;97616.52;;;10.60;79.61
58223;BME280;44020;50.890;15.796;2023-03-21T12:39:45;97608.27;;;10.61;78.84
58223;BME280;44020;50.890;15.796;2023-03-21T12:45:14;97603.08;;;10.61;78.97
58223;BME280;44020;50.890;15.796;2023-03-21T12:58:05;97583.23;;;10.81;79.00
58223;BME280;44020;50.890;15.796;2023-03-21T13:03:36;97577.41;;;11.04;78.96
58223;BME280;44020;50.890;15.796;2023-03-21T13:06:29;97573.38;;;11.13;78.58
58223;BME280;44020;50.890;15.796;2023-03-21T13:09:34;97567.59;;;11.28;78.37
58223;BME280;44020;50.890;15.796;2023-03-21T13:20:17;97547.54;;;11.51;77.42
58223;BME280;44020;50.890;15.796;2023-03-21T13:22:28;97545.04;;;11.56;77.26
58223;BME280;44020;50.890;15.796;2023-03-21T13:25:15;97548.63;;;11.63;77.16
58223;BME280;44020;50.890;15.796;2023-03-21T13:27:50;97548.93;;;11.63;76.85
58223;BME280;44020;50.890;15.796;2023-03-21T13:30:37;97545.70;;;11.61;76.50
58223;BME280;44020;50.890;15.796;2023-03-21T13:33:29;97540.42;;;11.63;76.17
58223;BME280;44020;50.890;15.796;2023-03-21T13:36:22;97535.86;;;11.64;76.22
58223;BME280;44020;50.890;15.796;2023-03-21T13:39:11;97535.23;;;11.65;75.98
58223;BME280;44020;50.890;15.796;2023-03-21T13:41:46;97535.30;;;11.64;75.74
58223;BME280;44020;50.890;15.796;2023-03-21T13:44:52;97532.36;;;11.61;75.49
58223;BME280;44020;50.890;15.796;2023-03-21T13:50:48;97530.13;;;11.60;75.74
58223;BME280;44020;50.890;15.796;2023-03-21T13:53:20;97529.52;;;11.59;75.78
58223;BME280;44020;50.890;15.796;2023-03-21T13:56:01;97526.38;;;11.56;75.86
58223;BME280;44020;50.890;15.796;2023-03-21T13:58:43;97525.16;;;11.53;75.54
58223;BME280;44020;50.890;15.796;2023-03-21T14:01:27;97523.05;;;11.53;75.55
58223;BME280;44020;50.890;15.796;2023-03-21T14:04:12;97523.33;;;11.52;75.57
58223;BME280;44020;50.890;15.796;2023-03-21T14:06:53;97514.23;;;11.49;75.33
58223;BME280;44020;50.890;15.796;2023-03-21T14:12:27;97509.74;;;11.45;74.84
58223;BME280;44020;50.890;15.796;2023-03-21T14:18:06;97505.05;;;11.53;74.74
58223;BME280;44020;50.890;15.796;2023-03-21T14:20:58;97505.10;;;11.80;75.15
58223;BME280;44020;50.890;15.796;2023-03-21T14:23:40;97500.38;;;11.93;74.41
58223;BME280;44020;50.890;15.796;2023-03-21T14:26:10;97499.45;;;12.00;74.03
58223;BME280;44020;50.890;15.796;2023-03-21T14:31:34;97495.21;;;12.31;73.79
58223;BME280;44020;50.890;15.796;2023-03-21T14:34:05;97492.13;;;12.34;73.49
58223;BME280;44020;50.890;15.796;2023-03-21T14:36:43;97490.75;;;12.33;73.42
58223;BME280;44020;50.890;15.796;2023-03-21T14:39:29;97489.05;;;12.33;73.36
58223;BME280;44020;50.890;15.796;2023-03-21T14:42:27;97486.36;;;12.30;73.31
58223;BME280;44020;50.890;15.796;2023-03-21T14:45:17;97481.70;;;12.28;72.97
58223;BME280;44020;50.890;15.796;2023-03-21T14:51:10;97482.56;;;12.40;73.06
58223;BME280;44020;50.890;15.796;2023-03-21T14:53:40;97476.80;;;12.47;73.00
58223;BME280;44020;50.890;15.796;2023-03-21T14:56:23;97477.77;;;12.48;72.92
58223;BME280;44020;50.890;15.796;2023-03-21T14:58:55;97477.47;;;12.45;72.69
58223;BME280;44020;50.890;15.796;2023-03-21T15:01:31;97480.38;;;12.40;72.61
58223;BME280;44020;50.890;15.796;2023-03-21T15:04:05;97484.56;;;12.35;72.45
58223;BME280;44020;50.890;15.796;2023-03-21T15:10:24;97486.42;;;12.20;72.19
58223;BME280;44020;50.890;15.796;2023-03-21T15:16:06;97486.25;;;12.00;72.63
58223;BME280;44020;50.890;15.796;2023-03-21T15:18:37;97486.21;;;11.92;73.00
58223;BME280;44020;50.890;15.796;2023-03-21T15:21:16;97485.83;;;11.83;72.94
58223;BME280;44020;50.890;15.796;2023-03-21T15:24:10;97479.03;;;11.76;73.16
58223;BME280;44020;50.890;15.796;2023-03-21T15:26:48;97476.95;;;11.69;73.13
58223;BME280;44020;50.890;15.796;2023-03-21T15:29:32;97474.92;;;11.65;73.23
58223;BME280;44020;50.890;15.796;2023-03-21T15:32:05;97470.20;;;11.62;73.24
58223;BME280;44020;50.890;15.796;2023-03-21T15:34:35;97469.04;;;11.61;73.43
58223;BME280;44020;50.890;15.796;2023-03-21T15:37:17;97466.77;;;11.58;73.49
58223;BME280;44020;50.890;15.796;2023-03-21T15:39:48;97467.89;;;11.58;73.46
58223;BME280;44020;50.890;15.796;2023-03-21T15:45:32;97460.52;;;11.56;73.89
58223;BME280;44020;50.890;15.796;2023-03-21T15:48:08;97459.77;;;11.57;73.74
58223;BME280;44020;50.890;15.796;2023-03-21T15:50:41;97454.95;;;11.57;73.89
58223;BME280;44020;50.890;15.796;2023-03-21T15:53:15;97456.96;;;11.58;74.08
58223;BME280;44020;50.890;15.796;2023-03-21T15:56:20;97459.36;;;11.59;74.01
58223;BME280;44020;50.890;15.796;2023-03-21T16:01:49;97456.59;;;11.59;73.73
58223;BME280;44020;50.890;15.796;2023-03-21T16:04:19;97455.31;;;11.57;73.85
58223;BME280;44020;50.890;15.796;2023-03-21T16:07:03;97456.13;;;11.56;73.98
58223;BME280;44020;50.890;15.796;2023-03-21T16:09:44;97453.97;;;11.54;73.93
58223;BME280;44020;50.890;15.796;2023-03-21T16:12:15;97455.70;;;11.54;74.19
58223;BME280;44020;50.890;15.796;2023-03-21T16:14:44;97454.83;;;11.54;74.08
58223;BME280;44020;50.890;15.796;2023-03-21T16:17:46;97454.34;;;11.53;74.16
58223;BME280;44020;50.890;15.796;2023-03-21T16:20:20;97451.70;;;11.53;74.36
58223;BME280;44020;50.890;15.796;2023-03-21T16:23:00;97450.30;;;11.53;74.12
58223;BME280;44020;50.890;15.796;2023-03-21T16:25:38;97450.91;;;11.52;74.18
58223;BME280;44020;50.890;15.796;2023-03-21T16:28:28;97451.16;;;11.49;73.99
58223;BME280;44020;50.890;15.796;2023-03-21T16:31:53;97451.74;;;11.45;74.02
58223;BME280;44020;50.890;15.796;2023-03-21T16:34:06;97452.23;;;11.43;74.26
58223;BME280;44020;50.890;15.796;2023-03-21T16:36:36;97449.42;;;11.43;74.25
58223;BME280;44020;50.890;15.796;2023-03-21T16:39:25;97451.37;;;11.41;74.08
58223;BME280;44020;50.890;15.796;2023-03-21T16:42:02;97448.31;;;11.41;74.25
58223;BME280;44020;50.890;15.796;2023-03-21T16:44:33;97451.76;;;11.40;74.32
58223;BME280;44020;50.890;15.796;2023-03-21T16:47:37;97450.06;;;11.39;74.22
58223;BME280;44020;50.890;15.796;2023-03-21T16:53:20;97453.13;;;11.35;74.39
58223;BME280;44020;50.890;15.796;2023-03-21T16:55:53;97453.18;;;11.34;74.47
58223;BME280;44020;50.890;15.796;2023-03-21T16:58:34;97458.84;;;11.32;74.46
58223;BME280;44020;50.890;15.796;2023-03-21T17:04:39;97457.86;;;11.29;74.86
58223;BME280;44020;50.890;15.796;2023-03-21T17:10:27;97461.55;;;11.22;75.09
58223;BME280;44020;50.890;15.796;2023-03-21T17:13:05;97461.90;;;11.20;75.06
58223;BME280;44020;50.890;15.796;2023-03-21T17:15:37;97460.54;;;11.19;75.23
58223;BME280;44020;50.890;15.796;2023-03-21T17:18:09;97461.39;;;11.19;75.31
58223;BME280;44020;50.890;15.796;2023-03-21T17:20:47;97462.13;;;11.19;75.09
58223;BME280;44020;50.890;15.796;2023-03-21T17:23:20;97460.85;;;11.17;75.09
58223;BME280;44020;50.890;15.796;2023-03-21T17:28:40;97463.41;;;11.12;75.11
58223;BME280;44020;50.890;15.796;2023-03-21T17:31:20;97458.22;;;11.08;75.42
58223;BME280;44020;50.890;15.796;2023-03-21T17:33:48;97454.73;;;11.04;75.48
58223;BME280;44020;50.890;15.796;2023-03-21T17:36:36;97455.02;;;11.00;75.40
58223;BME280;44020;50.890;15.796;2023-03-21T17:39:08;97457.86;;;10.93;75.50
58223;BME280;44020;50.890;15.796;2023-03-21T17:41:37;97453.01;;;10.85;75.64
58223;BME280;44020;50.890;15.796;2023-03-21T17:44:05;97453.10;;;10.76;75.73
58223;BME280;44020;50.890;15.796;2023-03-21T17:46:35;97454.43;;;10.73;75.88
58223;BME280;44020;50.890;15.796;2023-03-21T17:49:11;97451.57;;;10.71;76.01
58223;BME280;44020;50.890;15.796;2023-03-21T17:51:51;97453.13;;;10.67;76.12
58223;BME280;44020;50.890;15.796;2023-03-21T17:54:22;97458.02;;;10.58;76.22
58223;BME280;44020;50.890;15.796;2023-03-21T17:56:50;97454.20;;;10.52;76.57
58223;BME280;44020;50.890;15.796;2023-03-21T17:59:19;97458.74;;;10.51;76.88
58223;BME280;44020;50.890;15.796;2023-03-21T18:01:47;97459.73;;;10.50;76.85
58223;BME280;44020;50.890;15.796;2023-03-21T18:04:16;97456.69;;;10.47;76.92
58223;BME280;44020;50.890;15.796;2023-03-21T18:06:44;97453.95;;;10.41;76.87
58223;BME280;44020;50.890;15.796;2023-03-21T18:15:31;97460.27;;;10.32;77.73
58223;BME280;44020;50.890;15.796;2023-03-21T18:18:13;97456.67;;;10.31;77.72
58223;BME280;44020;50.890;15.796;2023-03-21T18:20:53;97457.58;;;10.30;77.97
58223;BME280;44020;50.890;15.796;2023-03-21T18:23:42;97461.57;;;10.29;77.97
58223;BME280;44020;50.890;15.796;2023-03-21T18:26:19;97462.59;;;10.27;78.05
58223;BME280;44020;50.890;15.796;2023-03-21T18:28:50;97462.04;;;10.25;78.40
58223;BME280;44020;50.890;15.796;2023-03-21T18:31:21;97455.44;;;10.26;78.48
58223;BME280;44020;50.890;15.796;2023-03-21T18:33:50;97454.77;;;10.25;78.54
58223;BME280;44020;50.890;15.796;2023-03-21T18:36:20;97453.35;;;10.25;78.46
58223;BME280;44020;50.890;15.796;2023-03-21T18:41:31;97451.72;;;10.23;78.74
58223;BME280;44020;50.890;15.796;2023-03-21T18:44:05;97449.42;;;10.23;78.73
58223;BME280;44020;50.890;15.796;2023-03-21T18:46:33;97449.76;;;10.23;78.75
58223;BME280;44020;50.890;15.796;2023-03-21T18:49:01;97450.10;;;10.23;78.67
58223;BME280;44020;50.890;15.796;2023-03-21T18:51:29;97443.44;;;10.19;78.65